Flight Track Log - Related Links

Times and Time Zones

All times are in EDT time to prevent confusion due to time zone crossing. See the ELO3908 flight status page for this flight to view local times or setup timezone preferences in your user account.

Time Position Orientation Groundspeed Altitude Reporting Facility
EDT Latitude Longitude Course Direction KTS MPH feet Rate Location/Type
Thu 10:34:00 AM 50.2939 19.9021 19° North  Level Estimated
Thu 10:35:00 AM 50.3659 19.9414 19° North  Level Estimated
Thu 10:36:00 AM 50.4380 19.9808 19° North  Level Estimated
Thu 10:37:00 AM 50.5099 20.0204 19° North  Level Estimated
Thu 10:38:00 AM 50.5819 20.0601 19° North  Level Estimated
Thu 10:39:00 AM 50.6539 20.0999 19° North  Level Estimated
Thu 10:40:00 AM 50.7259 20.1398 19° North  Level Estimated
Thu 10:41:00 AM 50.7978 20.1798 19° North  Level Estimated
Thu 10:42:00 AM 50.8698 20.2200 19° North  Level Estimated
Thu 10:43:00 AM 50.9417 20.2603 19° North  Level Estimated
Thu 10:44:00 AM 51.0136 20.3007 19° North  Level Estimated
Thu 10:45:00 AM 51.0855 20.3413 20° North  Level Estimated
Thu 10:46:00 AM 51.1574 20.3819 20° North  Level Estimated
Thu 10:47:00 AM 51.2292 20.4227 20° North  Level Estimated
Thu 10:48:00 AM 51.3011 20.4637 20° North  Level Estimated
Thu 10:49:00 AM 51.3729 20.5047 20° North  Level Estimated
Thu 10:50:00 AM 51.4447 20.5459 20° North  Level Estimated
Thu 10:51:00 AM 51.5165 20.5872 20° North  Level Estimated
Thu 10:52:00 AM 51.5883 20.6286 20° North  Level Estimated
Thu 10:53:00 AM 51.6601 20.6702 20° North  Level Estimated
Thu 10:54:00 AM 51.7319 20.7119 20° North  Level Estimated
Thu 10:55:00 AM 51.8036 20.7538 20° North  Level Estimated
Thu 10:56:00 AM 51.8754 20.7957 20° North  Level Estimated
Thu 10:57:00 AM 51.9471 20.8378 20° North  Level Estimated
Thu 10:58:00 AM 52.0188 20.8801 20° North  Level Estimated
Thu 10:59:00 AM 52.0905 20.9225 20° North  Level Estimated
Thu 11:00:00 AM 52.1621 20.9650 20° North  Level Estimated
Thu 11:01:00 AM 52.1657 20.9671 20° North  Level Estimated
Thu 11:02:00 AM 52.1657 20.9671 90° East  Level Estimated
Thu 11:03:00 AM 52.1657 20.9671 90° East  Level Estimated
Thu 11:04:00 AM 52.1657 20.9671 90° East  Level Estimated
Thu 11:05:00 AM 52.1657 20.9671 90° East  Level Estimated
Thu 11:06:00 AM 52.1657 20.9671 90° East  Level Estimated
Thu 11:07:00 AM 52.1657 20.9671 90° East  Level Estimated
Thu 11:08:00 AM 52.1657 20.9671 90° East  Level Estimated
Thu 11:09:00 AM 52.1657 20.9671 90° East  Level Estimated
Thu 11:10:00 AM 52.1657 20.9671 90° East  Level Estimated
Thu 11:11:00 AM 52.1657 20.9671 90° East  Level Estimated

Login

Don't have an account? Register now (free) for customized features, flight alerts, and more!